createdAt,value
2023-03-28T00:01:38.632Z,102418.00
2023-03-28T00:04:08.993Z,102413.91
2023-03-28T00:04:56.631Z,102274.94
2023-03-28T00:06:38.102Z,102415.09
2023-03-28T00:09:06.302Z,102417.75
2023-03-28T00:10:11.940Z,102273.41
2023-03-28T00:11:35.624Z,102417.50
2023-03-28T00:14:05.216Z,102416.06
2023-03-28T00:15:28.000Z,102273.88
2023-03-28T00:16:33.922Z,102419.94
2023-03-28T00:19:04.202Z,102425.25
2023-03-28T00:20:43.783Z,102275.88
2023-03-28T00:21:34.133Z,102422.34
2023-03-28T00:24:03.491Z,102418.25
2023-03-28T00:25:59.774Z,102272.81
2023-03-28T00:26:33.720Z,102421.38
2023-03-28T00:29:03.826Z,102424.75
2023-03-28T00:31:14.638Z,102281.16
2023-03-28T00:31:32.068Z,102427.16
2023-03-28T00:34:01.024Z,102420.41
2023-03-28T00:36:29.994Z,102282.69
2023-03-28T00:36:31.401Z,102429.59
2023-03-28T00:39:01.020Z,102421.59
2023-03-28T00:41:29.770Z,102428.13
2023-03-28T00:41:45.396Z,102286.69
2023-03-28T00:43:59.453Z,102424.00
2023-03-28T00:46:27.722Z,102419.16
2023-03-28T00:47:00.681Z,102280.88
2023-03-28T00:48:57.678Z,102418.41
2023-03-28T00:51:27.977Z,102416.22
2023-03-28T00:52:15.356Z,102282.13
2023-03-28T00:53:57.383Z,102424.22
2023-03-28T00:56:26.283Z,102419.38
2023-03-28T00:57:31.949Z,102274.34
2023-03-28T00:58:56.174Z,102412.56
2023-03-28T01:01:25.650Z,102416.47
2023-03-28T01:02:48.114Z,102270.34
2023-03-28T01:03:54.692Z,102417.66
2023-03-28T01:06:23.718Z,102414.97
2023-03-28T01:08:03.704Z,102267.56
2023-03-28T01:08:52.783Z,102407.44
2023-03-28T01:11:23.361Z,102418.84
2023-03-28T01:13:18.661Z,102272.81
2023-03-28T01:13:51.850Z,102415.94
2023-03-28T01:16:27.981Z,102411.81
2023-03-28T01:18:33.397Z,102269.78
2023-03-28T01:18:58.734Z,102406.47
2023-03-28T01:21:28.119Z,102416.91
2023-03-28T01:23:48.610Z,102265.44
2023-03-28T01:24:11.799Z,102406.94
2023-03-28T01:26:42.565Z,102408.16
2023-03-28T01:29:03.360Z,102266.50
2023-03-28T01:29:12.056Z,102403.31
2023-03-28T01:31:44.044Z,102403.31
2023-03-28T01:34:20.649Z,102260.94
2023-03-28T01:34:43.432Z,102407.16
2023-03-28T01:37:13.356Z,102404.25
2023-03-28T01:39:35.672Z,102257.41
2023-03-28T01:39:49.210Z,102400.41
2023-03-28T01:42:24.757Z,102396.94
2023-03-28T01:44:50.658Z,102251.38
2023-03-28T01:45:00.191Z,102401.31
2023-03-28T01:47:28.536Z,102396.72
2023-03-28T01:49:58.471Z,102396.47
2023-03-28T01:50:06.584Z,102249.56
2023-03-28T01:52:28.854Z,102398.41
2023-03-28T01:55:00.367Z,102391.63
2023-03-28T01:55:21.635Z,102247.25
2023-03-28T01:57:30.413Z,102390.13
2023-03-28T02:00:03.525Z,102388.69
2023-03-28T02:00:36.611Z,102253.28
2023-03-28T02:02:33.014Z,102394.03
2023-03-28T02:05:19.621Z,102396.44
2023-03-28T02:05:51.600Z,102254.78
2023-03-28T02:07:48.901Z,102391.13
2023-03-28T02:10:18.532Z,102384.31
2023-03-28T02:11:06.672Z,102242.16
2023-03-28T02:13:07.346Z,102382.84
2023-03-28T02:15:43.527Z,102388.19
2023-03-28T02:16:40.633Z,102238.91
2023-03-28T02:18:25.113Z,102382.84
2023-03-28T02:20:57.838Z,102386.72
2023-03-28T02:22:16.410Z,102242.47
2023-03-28T02:23:51.494Z,102384.06
2023-03-28T02:26:50.572Z,102385.28
2023-03-28T02:27:49.616Z,102242.16
2023-03-28T02:29:40.748Z,102383.78
2023-03-28T02:32:17.531Z,102378.47
2023-03-28T02:33:42.587Z,102238.31
2023-03-28T02:34:47.535Z,102389.13
2023-03-28T02:37:17.945Z,102380.88
2023-03-28T02:38:57.635Z,102233.84
2023-03-28T02:39:48.289Z,102380.88
2023-03-28T02:42:18.190Z,102380.16
2023-03-28T02:44:12.766Z,102235.84
2023-03-28T02:44:48.319Z,102379.44
2023-03-28T02:47:17.741Z,102384.03
2023-03-28T02:49:29.953Z,102244.66
2023-03-28T02:49:50.424Z,102387.88
2023-03-28T02:52:20.916Z,102386.44
2023-03-28T02:54:48.606Z,102245.13
2023-03-28T02:54:51.015Z,102385.69
2023-03-28T02:57:41.085Z,102385.69
2023-03-28T03:00:12.243Z,102383.53
2023-03-28T03:00:13.654Z,102247.13
2023-03-28T03:02:45.003Z,102388.84
2023-03-28T03:05:14.986Z,102393.44
2023-03-28T03:05:28.490Z,102246.38
2023-03-28T03:07:43.873Z,102386.66
2023-03-28T03:10:13.288Z,102390.50
2023-03-28T03:10:44.513Z,102252.69
2023-03-28T03:12:46.210Z,102389.09
2023-03-28T03:15:14.088Z,102387.59
2023-03-28T03:15:59.887Z,102246.66
2023-03-28T03:17:46.095Z,102387.59
2023-03-28T03:20:18.673Z,102382.28
2023-03-28T03:21:14.608Z,102245.69
2023-03-28T03:22:48.506Z,102394.41
2023-03-28T03:25:16.952Z,102396.56
2023-03-28T03:26:29.634Z,102248.78
2023-03-28T03:27:55.300Z,102386.66
2023-03-28T03:30:24.586Z,102391.00
2023-03-28T03:31:46.810Z,102245.81
2023-03-28T03:33:17.046Z,102391.00
2023-03-28T03:35:49.291Z,102388.63
2023-03-28T03:37:25.353Z,102249.50
2023-03-28T03:38:20.591Z,102386.94
2023-03-28T03:40:50.080Z,102387.94
2023-03-28T03:42:40.624Z,102245.63
2023-03-28T03:43:21.451Z,102386.00
2023-03-28T03:45:51.593Z,102384.31
2023-03-28T03:47:55.637Z,102244.56
2023-03-28T03:48:19.965Z,102386.53
2023-03-28T03:50:52.666Z,102380.22
2023-03-28T03:53:10.772Z,102236.44
2023-03-28T03:53:22.550Z,102380.72
2023-03-28T03:56:12.232Z,102382.19
2023-03-28T03:58:31.655Z,102240.91
2023-03-28T03:58:53.562Z,102388.47
2023-03-28T04:01:25.222Z,102383.44
2023-03-28T04:03:50.686Z,102238.31
2023-03-28T04:03:56.863Z,102375.69
2023-03-28T04:06:36.421Z,102378.63
2023-03-28T04:09:08.256Z,102378.84
2023-03-28T04:09:14.662Z,102238.06
2023-03-28T04:12:07.252Z,102375.25
2023-03-28T04:14:42.664Z,102238.97
2023-03-28T04:15:05.781Z,102384.25
2023-03-28T04:17:37.531Z,102385.72
2023-03-28T04:20:14.663Z,102390.78
2023-03-28T04:20:16.652Z,102247.03
2023-03-28T04:23:05.297Z,102385.16
2023-03-28T04:25:35.808Z,102386.63
2023-03-28T04:25:44.586Z,102244.41
2023-03-28T04:28:25.909Z,102387.06
2023-03-28T04:30:59.917Z,102382.91
2023-03-28T04:31:08.699Z,102233.78
2023-03-28T04:33:29.993Z,102379.25
2023-03-28T04:36:00.019Z,102379.72
2023-03-28T04:36:42.609Z,102235.97
2023-03-28T04:38:34.250Z,102378.97
2023-03-28T04:41:17.389Z,102378.72
2023-03-28T04:41:57.662Z,102234.91
2023-03-28T04:44:04.639Z,102376.06
2023-03-28T04:46:39.691Z,102383.78
2023-03-28T04:47:30.698Z,102231.84
2023-03-28T04:49:14.057Z,102377.00
2023-03-28T04:51:43.920Z,102384.78
2023-03-28T04:52:45.634Z,102236.34
2023-03-28T04:54:13.524Z,102379.44
2023-03-28T04:56:48.081Z,102387.44
2023-03-28T04:58:01.618Z,102244.34
2023-03-28T04:59:25.121Z,102385.94
2023-03-28T05:01:55.757Z,102387.16
2023-03-28T05:03:17.760Z,102242.03
2023-03-28T05:04:34.804Z,102384.25
2023-03-28T05:07:07.363Z,102386.19
2023-03-28T05:08:43.610Z,102238.97
2023-03-28T05:09:37.186Z,102380.13
2023-03-28T05:12:07.854Z,102396.56
2023-03-28T05:13:58.685Z,102247.00
2023-03-28T05:14:54.117Z,102395.84
2023-03-28T05:17:23.862Z,102394.41
2023-03-28T05:19:20.634Z,102243.94
2023-03-28T05:19:58.217Z,102398.25
2023-03-28T05:22:34.217Z,102400.94
2023-03-28T05:24:45.605Z,102252.72
2023-03-28T05:25:04.617Z,102404.34
2023-03-28T05:27:39.456Z,102399.47
2023-03-28T05:30:02.613Z,102254.44
2023-03-28T05:30:12.002Z,102413.50
2023-03-28T05:32:42.590Z,102414.72
2023-03-28T05:35:12.669Z,102412.06
2023-03-28T05:35:18.398Z,102266.78
2023-03-28T05:37:44.756Z,102408.88
2023-03-28T05:40:16.191Z,102416.81
2023-03-28T05:40:33.656Z,102267.22
2023-03-28T05:42:46.600Z,102415.09
2023-03-28T05:45:19.069Z,102424.28
2023-03-28T05:45:48.726Z,102276.03
2023-03-28T05:47:50.173Z,102420.44
2023-03-28T05:50:20.299Z,102423.38
2023-03-28T05:51:10.613Z,102284.06
2023-03-28T05:52:49.534Z,102424.81
2023-03-28T05:55:17.862Z,102426.28
2023-03-28T05:56:25.645Z,102268.69
2023-03-28T05:57:47.729Z,102420.97
2023-03-28T06:00:19.430Z,102417.81
2023-03-28T06:01:42.736Z,102269.91
2023-03-28T06:02:53.229Z,102413.22
2023-03-28T06:05:31.216Z,102416.13
2023-03-28T06:06:58.737Z,102271.13
2023-03-28T06:08:02.756Z,102419.06
2023-03-28T06:10:31.989Z,102419.06
2023-03-28T06:12:14.657Z,102276.38
2023-03-28T06:13:21.144Z,102424.66
2023-03-28T06:15:51.929Z,102431.00
2023-03-28T06:17:32.658Z,102280.41
2023-03-28T06:18:27.086Z,102427.81
2023-03-28T06:20:56.072Z,102429.31
2023-03-28T06:22:49.007Z,102276.09
2023-03-28T06:23:26.444Z,102426.91
2023-03-28T06:25:56.645Z,102431.00
2023-03-28T06:28:05.380Z,102278.09
2023-03-28T06:28:32.672Z,102425.94
2023-03-28T06:31:14.442Z,102426.91
2023-03-28T06:33:40.670Z,102272.25
2023-03-28T06:33:45.391Z,102419.66
2023-03-28T06:36:15.474Z,102417.25
2023-03-28T06:38:46.194Z,102424.75
2023-03-28T06:38:55.939Z,102268.69
2023-03-28T06:41:16.493Z,102418.97
2023-03-28T06:43:46.839Z,102420.69
2023-03-28T06:44:12.736Z,102267.16
2023-03-28T06:46:33.103Z,102414.41
2023-03-28T06:49:01.514Z,102418.78
2023-03-28T06:49:56.613Z,102273.19
2023-03-28T06:51:57.564Z,102423.16
2023-03-28T06:54:28.580Z,102418.34
2023-03-28T06:55:19.678Z,102278.72
2023-03-28T06:56:59.473Z,102428.31
2023-03-28T06:59:30.015Z,102422.28
2023-03-28T07:00:34.655Z,102272.91
2023-03-28T07:02:03.932Z,102422.56
2023-03-28T07:04:35.900Z,102430.59
2023-03-28T07:06:08.659Z,102276.09
2023-03-28T07:07:05.834Z,102426.28
2023-03-28T07:09:34.322Z,102423.66
2023-03-28T07:11:26.551Z,102283.22
2023-03-28T07:12:08.715Z,102426.31
2023-03-28T07:14:37.789Z,102434.34
2023-03-28T07:16:41.513Z,102283.66
2023-03-28T07:17:08.096Z,102431.22
2023-03-28T07:19:45.632Z,102424.41
2023-03-28T07:21:56.662Z,102286.91
2023-03-28T07:22:14.189Z,102427.81
2023-03-28T07:24:43.390Z,102431.22
2023-03-28T07:27:16.186Z,102284.13
2023-03-28T07:27:16.544Z,102438.00
2023-03-28T07:29:47.121Z,102434.41
2023-03-28T07:32:15.491Z,102439.97
2023-03-28T07:32:39.363Z,102300.03
2023-03-28T07:34:47.018Z,102442.66
2023-03-28T07:37:22.250Z,102445.31
2023-03-28T07:38:06.088Z,102288.94
2023-03-28T07:40:07.278Z,102438.09
2023-03-28T07:42:36.989Z,102438.34
2023-03-28T07:43:31.740Z,102292.94
2023-03-28T07:45:05.484Z,102445.91
2023-03-28T07:47:34.341Z,102441.09
2023-03-28T07:48:46.828Z,102304.03
2023-03-28T07:50:03.363Z,102450.84
2023-03-28T07:52:32.846Z,102452.06
2023-03-28T07:54:01.664Z,102312.34
2023-03-28T07:55:01.775Z,102450.38
2023-03-28T07:57:35.719Z,102446.97
2023-03-28T07:59:16.421Z,102306.81
2023-03-28T08:00:19.676Z,102452.00
2023-03-28T08:03:08.822Z,102454.69
2023-03-28T08:04:34.720Z,102309.59
2023-03-28T08:05:37.394Z,102452.84
2023-03-28T08:08:06.082Z,102454.16
2023-03-28T08:09:51.656Z,102298.19
2023-03-28T08:10:35.317Z,102455.19
2023-03-28T08:13:04.717Z,102444.06
2023-03-28T08:15:08.661Z,102302.50
2023-03-28T08:15:33.760Z,102443.97
2023-03-28T08:18:03.936Z,102454.44
2023-03-28T08:20:25.054Z,102295.41
2023-03-28T08:20:36.717Z,102442.69
2023-03-28T08:23:12.094Z,102451.44
2023-03-28T08:25:44.454Z,102445.69
2023-03-28T08:25:53.736Z,102300.94
2023-03-28T08:28:15.911Z,102449.53
2023-03-28T08:30:44.946Z,102448.19
2023-03-28T08:31:09.752Z,102298.19
2023-03-28T08:33:15.324Z,102449.75
2023-03-28T08:35:45.543Z,102438.97
2023-03-28T08:36:30.684Z,102290.63
2023-03-28T08:38:19.368Z,102430.09
2023-03-28T08:40:48.823Z,102435.34
2023-03-28T08:41:46.817Z,102292.63
2023-03-28T08:43:21.503Z,102429.66
2023-03-28T08:45:53.072Z,102437.22
2023-03-28T08:47:02.054Z,102289.84
2023-03-28T08:48:21.420Z,102442.56
2023-03-28T08:50:53.113Z,102444.16
2023-03-28T08:52:17.777Z,102294.63
2023-03-28T08:53:27.085Z,102443.94
2023-03-28T08:55:56.835Z,102443.63
2023-03-28T08:57:32.627Z,102294.63
2023-03-28T08:58:26.357Z,102434.69
2023-03-28T09:00:55.000Z,102444.50
2023-03-28T09:02:49.166Z,102285.84
2023-03-28T09:03:23.517Z,102433.03
2023-03-28T09:05:58.757Z,102434.56
2023-03-28T09:08:05.669Z,102273.53
2023-03-28T09:08:29.198Z,102428.53
2023-03-28T09:11:00.144Z,102424.22
2023-03-28T09:13:21.079Z,102284.31
2023-03-28T09:13:33.918Z,102426.81
2023-03-28T09:16:02.538Z,102423.28
2023-03-28T09:18:32.543Z,102433.41
2023-03-28T09:18:36.669Z,102283.53
2023-03-28T09:21:02.753Z,102426.38
2023-03-28T09:23:36.283Z,102425.28
2023-03-28T09:23:52.653Z,102270.91
2023-03-28T09:26:19.771Z,102420.69
2023-03-28T09:28:52.384Z,102422.13
2023-03-28T09:29:26.666Z,102268.94
2023-03-28T09:31:21.167Z,102416.34
2023-03-28T09:33:49.194Z,102423.28
2023-03-28T09:34:41.399Z,102277.25
2023-03-28T09:36:37.385Z,102419.47
2023-03-28T09:39:15.531Z,102421.81
2023-03-28T09:39:57.650Z,102269.66
2023-03-28T09:41:44.524Z,102418.50
2023-03-28T09:44:54.230Z,102422.22
2023-03-28T09:45:22.689Z,102268.94
2023-03-28T09:47:45.416Z,102416.22
2023-03-28T09:50:16.673Z,102409.72
2023-03-28T09:50:40.968Z,102264.91
2023-03-28T09:52:48.324Z,102401.75
2023-03-28T09:55:18.753Z,102402.38
2023-03-28T09:56:04.465Z,102250.56
2023-03-28T09:57:49.088Z,102394.00
2023-03-28T10:00:23.151Z,102401.47
2023-03-28T10:01:22.710Z,102249.03
2023-03-28T10:03:12.462Z,102410.69
2023-03-28T10:05:42.420Z,102399.31
2023-03-28T10:06:57.659Z,102248.25
2023-03-28T10:08:20.841Z,102404.03
2023-03-28T10:11:10.980Z,102393.50
2023-03-28T10:12:12.662Z,102242.25
2023-03-28T10:13:41.521Z,102387.69
2023-03-28T10:16:11.905Z,102376.94
2023-03-28T10:17:28.116Z,102221.28
2023-03-28T10:18:59.752Z,102367.41
2023-03-28T10:21:31.910Z,102376.94
2023-03-28T10:22:43.394Z,102227.59
2023-03-28T10:24:15.661Z,102379.19
2023-03-28T10:26:52.762Z,102364.72
2023-03-28T10:27:58.675Z,102212.97
2023-03-28T10:29:27.823Z,102361.53
2023-03-28T10:31:57.780Z,102359.34
2023-03-28T10:33:13.776Z,102202.63
2023-03-28T10:34:36.223Z,102345.69
2023-03-28T10:37:14.267Z,102344.25
2023-03-28T10:38:38.974Z,102188.00
2023-03-28T10:39:52.800Z,102336.00
2023-03-28T10:42:42.635Z,102339.47
2023-03-28T10:44:03.671Z,102181.22
2023-03-28T10:45:30.905Z,102331.94
2023-03-28T10:48:00.984Z,102334.72
2023-03-28T10:49:24.637Z,102180.44
2023-03-28T10:50:29.385Z,102328.75
2023-03-28T10:52:59.338Z,102332.44
2023-03-28T10:54:45.689Z,102174.91
2023-03-28T10:55:32.080Z,102319.84
2023-03-28T10:58:12.177Z,102325.81
2023-03-28T11:00:15.695Z,102173.34
2023-03-28T11:00:49.927Z,102324.97
2023-03-28T11:03:20.945Z,102313.38
2023-03-28T11:05:30.689Z,102165.81
2023-03-28T11:06:05.753Z,102316.47
2023-03-28T11:08:41.864Z,102310.97
2023-03-28T11:10:47.733Z,102157.50
2023-03-28T11:11:14.060Z,102313.69
2023-03-28T11:13:49.737Z,102307.91
2023-03-28T11:16:09.688Z,102150.69
2023-03-28T11:16:21.108Z,102303.38
2023-03-28T11:19:08.347Z,102299.53
2023-03-28T11:21:43.262Z,102294.47
2023-03-28T11:21:44.397Z,102154.25
2023-03-28T11:24:12.640Z,102282.56
2023-03-28T11:27:12.551Z,102142.38
2023-03-28T11:27:14.872Z,102283.50
2023-03-28T11:30:08.011Z,102283.09
2023-03-28T11:32:43.829Z,102282.84
2023-03-28T11:32:56.827Z,102131.28
2023-03-28T11:35:13.058Z,102277.34
2023-03-28T11:37:43.076Z,102266.91
2023-03-28T11:38:11.681Z,102113.88
2023-03-28T11:40:15.651Z,102247.06
2023-03-28T11:42:54.936Z,102246.13
2023-03-28T11:43:27.623Z,102109.09
2023-03-28T11:45:37.485Z,102263.59
2023-03-28T11:48:12.136Z,102248.34
2023-03-28T11:48:43.940Z,102103.53
2023-03-28T11:50:42.071Z,102251.59
2023-03-28T11:53:47.475Z,102249.09
2023-03-28T11:54:03.696Z,102105.09
2023-03-28T11:56:17.759Z,102251.03
2023-03-28T11:59:01.206Z,102238.34
2023-03-28T11:59:20.642Z,102094.00
2023-03-28T12:01:31.066Z,102241.25
2023-03-28T12:03:59.677Z,102233.78
2023-03-28T12:04:35.454Z,102084.91
2023-03-28T12:06:29.783Z,102233.88
2023-03-28T12:08:58.413Z,102221.75
2023-03-28T12:09:51.486Z,102068.25
2023-03-28T12:11:34.380Z,102221.44
2023-03-28T12:14:12.139Z,102211.38
2023-03-28T12:15:07.688Z,102071.03
2023-03-28T12:16:48.659Z,102210.34
2023-03-28T12:19:19.606Z,102191.69
2023-03-28T12:20:42.953Z,102051.63
2023-03-28T12:21:52.604Z,102193.16
2023-03-28T12:24:28.491Z,102190.97
2023-03-28T12:26:15.623Z,102030.97
2023-03-28T12:27:08.582Z,102176.63
2023-03-28T12:29:38.044Z,102183.66
2023-03-28T12:31:30.471Z,102025.41
2023-03-28T12:32:07.109Z,102180.00
2023-03-28T12:34:36.042Z,102175.16
2023-03-28T12:37:00.195Z,102028.19
2023-03-28T12:37:26.348Z,102174.28
2023-03-28T12:39:59.766Z,102166.25
2023-03-28T12:42:17.754Z,102023.38
2023-03-28T12:42:31.302Z,102166.03
2023-03-28T12:45:01.247Z,102158.19
2023-03-28T12:47:32.740Z,102157.59
2023-03-28T12:47:33.813Z,102007.50
2023-03-28T12:50:03.805Z,102150.13
2023-03-28T12:52:34.398Z,102155.94
2023-03-28T12:52:50.409Z,101998.41
2023-03-28T12:55:06.382Z,102143.31
2023-03-28T12:57:44.513Z,102141.38
2023-03-28T12:58:14.700Z,101996.41
2023-03-28T13:00:46.820Z,102143.94
2023-03-28T13:03:32.709Z,101996.41
2023-03-28T13:03:37.790Z,102141.66
2023-03-28T13:06:12.982Z,102151.06
2023-03-28T13:08:42.352Z,102153.63
2023-03-28T13:08:54.701Z,101994.91
2023-03-28T13:11:11.842Z,102138.13
2023-03-28T13:13:41.392Z,102153.72
2023-03-28T13:14:09.706Z,102007.50
2023-03-28T13:16:12.083Z,102147.81
2023-03-28T13:18:41.576Z,102141.59
2023-03-28T13:19:24.687Z,101997.19
2023-03-28T13:21:11.950Z,102143.00
2023-03-28T13:23:41.306Z,102145.84
2023-03-28T13:24:39.733Z,101996.41
2023-03-28T13:26:11.563Z,102141.38
2023-03-28T13:28:41.513Z,102133.78
2023-03-28T13:29:54.984Z,101977.75
2023-03-28T13:31:10.796Z,102141.97
2023-03-28T13:33:42.888Z,102135.75
2023-03-28T13:35:10.693Z,101986.09
2023-03-28T13:36:13.128Z,102124.16
2023-03-28T13:38:43.153Z,102124.75
2023-03-28T13:40:25.774Z,101976.53
2023-03-28T13:41:12.647Z,102124.03
2023-03-28T13:43:43.979Z,102115.47
2023-03-28T13:45:40.691Z,101961.88
2023-03-28T13:46:12.763Z,102109.53
2023-03-28T13:48:43.104Z,102101.13
2023-03-28T13:50:55.696Z,101938.16
2023-03-28T13:51:13.341Z,102094.28
2023-03-28T13:53:48.135Z,102083.97
2023-03-28T13:56:10.647Z,101940.47
2023-03-28T13:56:17.349Z,102086.78
2023-03-28T13:58:47.008Z,102080.75
2023-03-28T14:01:15.329Z,102069.09
2023-03-28T14:01:25.835Z,101916.94
2023-03-28T14:03:46.657Z,102067.16
2023-03-28T14:06:17.548Z,102058.13
2023-03-28T14:06:42.009Z,101906.41
2023-03-28T14:08:48.313Z,102048.59
2023-03-28T14:11:17.836Z,102049.13
2023-03-28T14:11:57.781Z,101898.09
2023-03-28T14:13:48.988Z,102044.94
2023-03-28T14:16:18.060Z,102037.25
2023-03-28T14:17:13.764Z,101887.00
2023-03-28T14:18:48.541Z,102039.75
2023-03-28T14:21:17.937Z,102025.84
2023-03-28T14:22:29.042Z,101864.03
2023-03-28T14:23:48.273Z,102017.59
2023-03-28T14:26:17.777Z,102015.38
2023-03-28T14:27:44.700Z,101854.47
2023-03-28T14:28:46.674Z,102010.28
2023-03-28T14:31:16.202Z,102010.72
2023-03-28T14:32:59.506Z,101853.28
2023-03-28T14:33:47.665Z,102002.44
2023-03-28T14:36:17.544Z,102001.09
2023-03-28T14:38:14.706Z,101848.16
2023-03-28T14:38:46.310Z,101994.75
2023-03-28T14:41:16.619Z,102005.22
2023-03-28T14:43:29.892Z,101846.94
2023-03-28T14:43:47.026Z,101994.94
2023-03-28T14:46:16.488Z,101995.84
2023-03-28T14:48:44.812Z,101825.97
2023-03-28T14:48:46.477Z,101980.94
2023-03-28T14:51:15.574Z,101980.06
2023-03-28T14:53:44.530Z,101975.31
2023-03-28T14:53:59.948Z,101816.44
2023-03-28T14:56:13.991Z,101968.06
2023-03-28T14:58:44.396Z,101958.94
2023-03-28T14:59:15.708Z,101799.81
2023-03-28T15:01:14.292Z,101957.53
2023-03-28T15:03:43.753Z,101952.28
2023-03-28T15:04:30.675Z,101803.34
2023-03-28T15:06:14.098Z,101952.09
2023-03-28T15:08:44.382Z,101953.41
2023-03-28T15:09:45.670Z,101790.69
2023-03-28T15:11:14.632Z,101936.47
2023-03-28T15:13:44.636Z,101933.84
2023-03-28T15:15:00.656Z,101778.38
2023-03-28T15:16:14.041Z,101925.91
2023-03-28T15:18:44.674Z,101925.47
2023-03-28T15:20:15.679Z,101758.19
2023-03-28T15:21:13.563Z,101906.78
2023-03-28T15:23:42.956Z,101899.25
2023-03-28T15:25:30.918Z,101744.34
2023-03-28T15:26:13.282Z,101891.03
2023-03-28T15:28:43.571Z,101885.66
2023-03-28T15:30:45.716Z,101734.00
2023-03-28T15:31:14.162Z,101885.97
2023-03-28T15:33:44.485Z,101881.34
2023-03-28T15:36:00.793Z,101726.44
2023-03-28T15:36:14.079Z,101885.00
2023-03-28T15:38:43.141Z,101875.31
2023-03-28T15:41:12.771Z,101875.13
2023-03-28T15:41:16.848Z,101718.56
2023-03-28T15:43:41.848Z,101870.03
2023-03-28T15:46:11.194Z,101871.72
2023-03-28T15:46:32.525Z,101710.25
2023-03-28T15:48:44.484Z,101863.78
2023-03-28T15:51:16.285Z,101861.41
2023-03-28T15:51:47.481Z,101708.28
2023-03-28T15:53:45.137Z,101862.91
2023-03-28T15:56:15.508Z,101862.47
2023-03-28T15:57:03.782Z,101711.06
2023-03-28T15:58:45.752Z,101857.41
2023-03-28T16:01:14.011Z,101855.50
2023-03-28T16:02:18.701Z,101711.81
2023-03-28T16:03:42.528Z,101856.28
2023-03-28T16:06:14.071Z,101857.78
2023-03-28T16:07:33.706Z,101706.25
2023-03-28T16:08:46.415Z,101851.97
2023-03-28T16:11:15.126Z,101843.97
2023-03-28T16:12:48.696Z,101707.03
2023-03-28T16:14:23.374Z,101852.22
2023-03-28T16:17:25.558Z,101844.00
2023-03-28T16:18:22.651Z,101695.94
2023-03-28T16:20:30.774Z,101841.09
2023-03-28T16:23:05.388Z,101841.84
2023-03-28T16:23:41.458Z,101695.94
2023-03-28T16:25:51.619Z,101844.00
2023-03-28T16:28:21.680Z,101842.78
2023-03-28T16:28:56.753Z,101693.16
2023-03-28T16:30:51.612Z,101844.47
2023-03-28T16:33:25.242Z,101845.19
2023-03-28T16:34:11.496Z,101695.94
2023-03-28T16:35:54.709Z,101843.97
2023-03-28T16:38:24.591Z,101836.66
2023-03-28T16:39:26.734Z,101683.31
2023-03-28T16:40:53.907Z,101831.31
2023-03-28T16:43:22.691Z,101828.88
2023-03-28T16:44:41.789Z,101675.00
2023-03-28T16:45:52.629Z,101830.31
2023-03-28T16:48:21.919Z,101828.88
2023-03-28T16:49:56.756Z,101678.53
2023-03-28T16:50:52.188Z,101832.69
2023-03-28T16:53:21.725Z,101825.16
2023-03-28T16:55:11.665Z,101675.75
2023-03-28T16:55:49.832Z,101825.34
2023-03-28T16:58:18.758Z,101830.25
2023-03-28T17:00:26.749Z,101672.97
2023-03-28T17:00:51.241Z,101824.88
2023-03-28T17:03:20.782Z,101829.50
2023-03-28T17:05:41.458Z,101680.53
2023-03-28T17:05:50.827Z,101838.94
2023-03-28T17:08:19.447Z,101821.97
2023-03-28T17:10:47.753Z,101827.31
2023-03-28T17:10:57.031Z,101678.97
2023-03-28T17:13:18.020Z,101821.97
2023-03-28T17:15:48.317Z,101835.13
2023-03-28T17:16:12.444Z,101676.22
2023-03-28T17:18:18.628Z,101822.25
2023-03-28T17:20:48.913Z,101802.59
2023-03-28T17:21:27.451Z,101648.47
2023-03-28T17:23:19.216Z,101802.34
2023-03-28T17:25:54.643Z,101808.94
2023-03-28T17:26:42.660Z,101659.56
2023-03-28T17:28:24.551Z,101811.41
2023-03-28T17:30:54.489Z,101795.66
2023-03-28T17:31:57.788Z,101646.47
2023-03-28T17:33:23.652Z,101800.75
2023-03-28T17:35:52.611Z,101804.44
2023-03-28T17:37:13.725Z,101659.56
2023-03-28T17:38:22.131Z,101806.88
2023-03-28T17:40:51.965Z,101785.28
2023-03-28T17:42:28.676Z,101632.59
2023-03-28T17:43:21.528Z,101786.78
2023-03-28T17:45:50.970Z,101777.09
2023-03-28T17:47:44.569Z,101629.81
2023-03-28T17:48:21.442Z,101771.53
2023-03-28T17:50:51.725Z,101777.38
2023-03-28T17:53:00.792Z,101615.19
2023-03-28T17:53:21.605Z,101771.09
2023-03-28T17:55:51.357Z,101770.13
2023-03-28T17:58:15.718Z,101615.97
2023-03-28T17:58:21.755Z,101766.53
2023-03-28T18:00:51.937Z,101765.56
2023-03-28T18:03:20.841Z,101774.81
2023-03-28T18:03:30.773Z,101616.75
2023-03-28T18:06:13.830Z,101773.84
2023-03-28T18:08:43.402Z,101769.50
2023-03-28T18:09:11.830Z,101620.75
2023-03-28T18:11:11.698Z,101774.13
2023-03-28T18:13:42.101Z,101775.84
2023-03-28T18:14:26.728Z,101619.97
2023-03-28T18:16:11.600Z,101772.94
2023-03-28T18:18:41.974Z,101761.81
2023-03-28T18:19:41.738Z,101621.50
2023-03-28T18:21:11.779Z,101772.50
2023-03-28T18:23:41.374Z,101761.59
2023-03-28T18:24:56.998Z,101612.41
2023-03-28T18:26:10.588Z,101761.38
2023-03-28T18:28:39.476Z,101763.59
2023-03-28T18:30:12.447Z,101613.19
2023-03-28T18:31:09.071Z,101768.72
2023-03-28T18:33:38.030Z,101766.78
2023-03-28T18:35:27.754Z,101611.19
2023-03-28T18:36:06.897Z,101757.81
2023-03-28T18:38:36.934Z,101766.84
2023-03-28T18:40:42.878Z,101621.50
2023-03-28T18:41:06.567Z,101771.22
2023-03-28T18:43:36.608Z,101770.97
2023-03-28T18:45:57.767Z,101625.06
2023-03-28T18:46:05.365Z,101773.66
2023-03-28T18:48:35.824Z,101777.53
2023-03-28T18:51:06.389Z,101773.44
2023-03-28T18:51:13.038Z,101613.97
2023-03-28T18:53:36.507Z,101767.88
2023-03-28T18:56:09.796Z,101766.41
2023-03-28T18:56:29.038Z,101608.88
2023-03-28T18:58:40.062Z,101754.31
2023-03-28T19:01:09.951Z,101747.03
2023-03-28T19:01:45.136Z,101605.66
2023-03-28T19:03:39.751Z,101750.94
2023-03-28T19:06:08.656Z,101748.75
2023-03-28T19:07:01.365Z,101585.44
2023-03-28T19:08:37.419Z,101741.25
2023-03-28T19:11:07.736Z,101737.16
2023-03-28T19:12:17.667Z,101589.00
2023-03-28T19:13:38.149Z,101731.59
2023-03-28T19:16:08.675Z,101731.34
2023-03-28T19:17:32.847Z,101575.91
2023-03-28T19:18:39.144Z,101727.22
2023-03-28T19:21:09.486Z,101723.34
2023-03-28T19:22:47.929Z,101570.63
2023-03-28T19:23:39.964Z,101725.81
2023-03-28T19:26:10.204Z,101717.56
2023-03-28T19:28:03.743Z,101567.44
2023-03-28T19:28:40.110Z,101709.31
2023-03-28T19:31:13.606Z,101710.31
2023-03-28T19:33:18.869Z,101565.22
2023-03-28T19:33:44.061Z,101712.50
2023-03-28T19:36:14.271Z,101699.91
2023-03-28T19:38:33.498Z,101556.19
2023-03-28T19:38:43.004Z,101702.88
2023-03-28T19:41:15.167Z,101705.31